createdAt,value
2022-08-03T00:00:26.330Z,43.84
2022-08-03T00:02:53.693Z,43.92
2022-08-03T00:05:20.846Z,44.26
2022-08-03T00:07:48.442Z,44.07
2022-08-03T00:10:16.631Z,44.07
2022-08-03T00:12:43.680Z,44.31
2022-08-03T00:15:15.178Z,44.07
2022-08-03T00:17:52.414Z,44.68
2022-08-03T00:20:20.903Z,44.61
2022-08-03T00:22:47.941Z,44.29
2022-08-03T00:25:14.979Z,44.54
2022-08-03T00:27:42.025Z,44.57
2022-08-03T00:30:09.121Z,44.77
2022-08-03T00:32:36.224Z,44.89
2022-08-03T00:35:08.421Z,44.65
2022-08-03T00:37:41.271Z,44.76
2022-08-03T00:40:08.955Z,44.54
2022-08-03T00:42:36.005Z,44.79
2022-08-03T00:45:03.049Z,44.88
2022-08-03T00:47:30.101Z,44.59
2022-08-03T00:49:57.177Z,45.04
2022-08-03T00:52:24.223Z,44.75
2022-08-03T00:54:51.263Z,45.08
2022-08-03T00:57:18.333Z,44.86
2022-08-03T00:59:45.452Z,44.89
2022-08-03T01:02:12.484Z,44.62
2022-08-03T01:04:39.532Z,44.61
2022-08-03T01:07:10.961Z,44.92
2022-08-03T01:09:38.283Z,44.86
2022-08-03T01:12:05.315Z,44.90
2022-08-03T01:14:32.359Z,45.21
2022-08-03T01:17:00.862Z,44.94
2022-08-03T01:19:27.902Z,44.83
2022-08-03T01:21:54.953Z,44.80
2022-08-03T01:24:22.212Z,45.20
2022-08-03T01:26:49.249Z,44.77
2022-08-03T01:29:16.286Z,45.15
2022-08-03T01:32:53.268Z,45.04
2022-08-03T01:34:30.361Z,45.00
2022-08-03T01:36:57.403Z,45.04
2022-08-03T01:39:24.475Z,45.13
2022-08-03T01:41:51.518Z,44.96
2022-08-03T01:44:29.112Z,44.86
2022-08-03T01:46:57.723Z,44.69
2022-08-03T01:49:24.796Z,45.15
2022-08-03T01:52:03.429Z,44.86
2022-08-03T01:54:32.225Z,45.04
2022-08-03T01:56:59.286Z,45.00
2022-08-03T01:59:26.393Z,44.92
2022-08-03T02:02:16.041Z,44.97
2022-08-03T02:04:40.564Z,44.68
2022-08-03T02:07:07.627Z,44.95
2022-08-03T02:09:34.682Z,45.03
2022-08-03T02:12:01.910Z,44.98
2022-08-03T02:14:28.958Z,45.01
2022-08-03T02:16:56.012Z,45.18
2022-08-03T02:19:23.102Z,44.76
2022-08-03T02:21:57.172Z,45.24
2022-08-03T02:24:28.504Z,45.07
2022-08-03T02:26:56.901Z,44.82
2022-08-03T02:29:40.109Z,44.77
2022-08-03T02:32:08.499Z,44.73
2022-08-03T02:34:35.565Z,44.87
2022-08-03T02:37:03.267Z,45.00
2022-08-03T02:39:30.327Z,45.05
2022-08-03T02:42:02.247Z,44.68
2022-08-03T02:44:30.402Z,44.88
2022-08-03T02:46:57.435Z,44.96
2022-08-03T02:49:42.138Z,44.77
2022-08-03T02:52:13.204Z,44.86
2022-08-03T02:54:42.987Z,44.76
2022-08-03T02:57:10.079Z,44.62
2022-08-03T02:59:37.142Z,44.78
2022-08-03T03:02:04.242Z,44.90
2022-08-03T03:04:33.179Z,44.63
2022-08-03T03:07:01.859Z,44.78
2022-08-03T03:09:40.427Z,44.90
2022-08-03T03:12:08.644Z,44.65
2022-08-03T03:14:35.690Z,44.69
2022-08-03T03:17:02.836Z,44.85
2022-08-03T03:19:30.458Z,45.07
2022-08-03T03:21:57.519Z,44.65
2022-08-03T03:24:24.591Z,44.82
2022-08-03T03:26:51.634Z,45.04
2022-08-03T03:29:18.724Z,44.74
2022-08-03T03:31:45.769Z,44.58
2022-08-03T03:34:12.813Z,45.01
2022-08-03T03:36:39.861Z,44.98
2022-08-03T03:39:15.904Z,44.83
2022-08-03T03:41:43.215Z,44.72
2022-08-03T03:44:10.267Z,44.73
2022-08-03T03:46:37.299Z,44.59
2022-08-03T03:49:04.349Z,44.84
2022-08-03T03:51:31.512Z,44.34
2022-08-03T03:53:58.554Z,44.66
2022-08-03T03:56:25.649Z,44.45
2022-08-03T03:58:52.675Z,44.16
2022-08-03T04:01:19.800Z,44.29
2022-08-03T04:03:46.874Z,44.03
2022-08-03T04:06:32.699Z,44.00
2022-08-03T04:09:23.034Z,44.07
2022-08-03T04:11:50.111Z,44.10
2022-08-03T04:14:17.170Z,44.32
2022-08-03T04:16:44.333Z,44.22
2022-08-03T04:19:11.385Z,44.00
2022-08-03T04:21:38.481Z,44.04
2022-08-03T04:24:06.062Z,44.28
2022-08-03T04:26:33.139Z,44.06
2022-08-03T04:29:00.951Z,44.06
2022-08-03T04:31:27.998Z,44.06
2022-08-03T04:33:55.050Z,43.67
2022-08-03T04:36:22.103Z,43.79
2022-08-03T04:38:49.146Z,44.12
2022-08-03T04:41:16.186Z,44.08
2022-08-03T04:43:43.341Z,43.96
2022-08-03T04:46:10.420Z,43.89
2022-08-03T04:48:37.532Z,43.89
2022-08-03T04:51:04.653Z,44.02
2022-08-03T04:53:31.736Z,43.97
2022-08-03T04:55:58.805Z,44.11
2022-08-03T04:58:28.618Z,43.91
2022-08-03T05:01:11.047Z,44.14
2022-08-03T05:03:38.178Z,44.01
2022-08-03T05:06:10.968Z,43.86
2022-08-03T05:08:46.286Z,43.64
2022-08-03T05:11:14.291Z,43.85
2022-08-03T05:13:41.354Z,43.86
2022-08-03T05:16:08.434Z,43.88
2022-08-03T05:18:35.990Z,44.00
2022-08-03T05:21:03.137Z,44.06
2022-08-03T05:23:30.184Z,43.57
2022-08-03T05:25:57.260Z,44.07
2022-08-03T05:28:24.366Z,43.92
2022-08-03T05:30:51.411Z,43.86
2022-08-03T05:33:18.450Z,44.06
2022-08-03T05:35:55.667Z,43.97
2022-08-03T05:38:34.592Z,43.59
2022-08-03T05:41:22.856Z,44.00
2022-08-03T05:43:49.346Z,43.82
2022-08-03T05:46:16.533Z,43.99
2022-08-03T05:48:43.602Z,43.94
2022-08-03T05:51:13.746Z,43.46
2022-08-03T05:53:40.876Z,43.74
2022-08-03T05:56:14.220Z,43.94
2022-08-03T05:58:42.580Z,43.58
2022-08-03T06:01:09.716Z,43.88
2022-08-03T06:03:36.797Z,43.81
2022-08-03T06:06:03.914Z,43.64
2022-08-03T06:08:31.059Z,43.45
2022-08-03T06:10:58.109Z,43.86
2022-08-03T06:13:25.215Z,43.76
2022-08-03T06:15:52.299Z,43.96
2022-08-03T06:18:19.596Z,43.68
2022-08-03T06:20:47.205Z,43.85
2022-08-03T06:23:18.078Z,43.77
2022-08-03T06:25:45.886Z,43.98
2022-08-03T06:28:42.387Z,44.10
2022-08-03T06:31:01.417Z,44.13
2022-08-03T06:34:30.166Z,43.90
2022-08-03T06:36:15.832Z,43.60
2022-08-03T06:38:42.876Z,43.94
2022-08-03T06:41:09.926Z,43.82
2022-08-03T06:43:38.151Z,43.67
2022-08-03T06:46:24.830Z,43.86
2022-08-03T06:48:53.401Z,43.65
2022-08-03T06:51:20.484Z,43.76
2022-08-03T06:53:47.535Z,43.92
2022-08-03T06:56:14.647Z,43.85
2022-08-03T06:58:41.706Z,44.00
2022-08-03T07:01:08.862Z,43.69
2022-08-03T07:03:36.171Z,43.66
2022-08-03T07:06:19.127Z,43.83
2022-08-03T07:08:48.522Z,44.04
2022-08-03T07:11:18.583Z,43.88
2022-08-03T07:13:45.659Z,43.97
2022-08-03T07:16:12.733Z,43.79
2022-08-03T07:18:39.883Z,44.06
2022-08-03T07:21:09.184Z,44.12
2022-08-03T07:23:36.239Z,43.99
2022-08-03T07:26:03.327Z,44.05
2022-08-03T07:28:30.379Z,43.71
2022-08-03T07:30:57.408Z,43.75
2022-08-03T07:33:24.458Z,43.84
2022-08-03T07:35:51.502Z,43.82
2022-08-03T07:38:21.090Z,43.86
2022-08-03T07:40:48.379Z,43.73
2022-08-03T07:43:15.493Z,43.60
2022-08-03T07:45:42.551Z,43.25
2022-08-03T07:48:12.350Z,43.68
2022-08-03T07:50:39.803Z,43.44
2022-08-03T07:53:06.880Z,43.54
2022-08-03T07:55:35.158Z,43.19
2022-08-03T07:58:02.305Z,43.39
2022-08-03T08:00:29.357Z,43.12
2022-08-03T08:02:56.426Z,43.20
2022-08-03T08:05:23.483Z,43.14
2022-08-03T08:07:50.738Z,43.26
2022-08-03T08:10:18.928Z,43.50
2022-08-03T08:12:46.117Z,43.20
2022-08-03T08:15:13.191Z,43.09
2022-08-03T08:17:40.235Z,43.42
2022-08-03T08:20:07.276Z,43.04
2022-08-03T08:22:36.038Z,43.18
2022-08-03T08:25:04.579Z,43.21
2022-08-03T08:28:29.417Z,42.86
2022-08-03T08:30:21.895Z,42.85
2022-08-03T08:32:49.032Z,42.99
2022-08-03T08:35:16.157Z,43.15
2022-08-03T08:37:43.494Z,42.73
2022-08-03T08:40:18.258Z,43.04
2022-08-03T08:42:57.955Z,42.80
2022-08-03T08:45:25.685Z,42.81
2022-08-03T08:47:55.706Z,42.47
2022-08-03T08:50:27.884Z,42.97
2022-08-03T08:52:55.423Z,42.97
2022-08-03T08:55:22.518Z,42.74
2022-08-03T08:57:49.675Z,42.51
2022-08-03T09:00:17.157Z,42.67
2022-08-03T09:02:44.422Z,42.95
2022-08-03T09:05:13.088Z,43.15
2022-08-03T09:07:40.275Z,42.79
2022-08-03T09:10:12.959Z,43.05
2022-08-03T09:12:42.340Z,42.78
2022-08-03T09:15:17.027Z,42.79
2022-08-03T09:17:48.871Z,42.77
2022-08-03T09:20:17.904Z,42.95
2022-08-03T09:22:44.970Z,42.84
2022-08-03T09:25:24.362Z,42.72
2022-08-03T09:27:51.932Z,43.29
2022-08-03T09:30:34.611Z,42.53
2022-08-03T09:33:02.577Z,42.59
2022-08-03T09:35:53.653Z,42.78
2022-08-03T09:38:16.742Z,42.54
2022-08-03T09:40:43.799Z,42.79
2022-08-03T09:43:10.914Z,42.69
2022-08-03T09:45:37.985Z,42.77
2022-08-03T09:48:05.068Z,42.64
2022-08-03T09:50:32.138Z,42.56
2022-08-03T09:52:59.207Z,42.41
2022-08-03T09:56:34.217Z,42.59
2022-08-03T09:58:14.360Z,42.61
2022-08-03T10:00:41.456Z,42.32
2022-08-03T10:03:08.569Z,42.63
2022-08-03T10:05:35.646Z,42.12
2022-08-03T10:08:02.704Z,42.29
2022-08-03T10:10:31.504Z,42.65
2022-08-03T10:12:59.446Z,42.03
2022-08-03T10:16:21.520Z,42.15
2022-08-03T10:18:13.639Z,42.20
2022-08-03T10:20:40.671Z,42.25
2022-08-03T10:23:07.757Z,42.26
2022-08-03T10:25:35.323Z,42.00
2022-08-03T10:28:04.335Z,42.31
2022-08-03T10:30:32.184Z,42.88
2022-08-03T10:32:59.233Z,42.04
2022-08-03T10:35:26.294Z,42.40
2022-08-03T10:37:57.102Z,42.57
2022-08-03T10:40:47.539Z,42.08
2022-08-03T10:43:11.537Z,42.10
2022-08-03T10:45:38.595Z,42.07
2022-08-03T10:48:05.645Z,41.76
2022-08-03T10:50:32.708Z,41.89
2022-08-03T10:53:03.770Z,41.86
2022-08-03T10:55:49.879Z,41.69
2022-08-03T10:58:30.304Z,42.22
2022-08-03T11:00:58.020Z,42.10
2022-08-03T11:03:25.203Z,41.68
2022-08-03T11:05:54.508Z,42.06
2022-08-03T11:08:21.591Z,41.87
2022-08-03T11:10:48.636Z,41.88
2022-08-03T11:13:16.911Z,41.80
2022-08-03T11:15:44.081Z,42.01
2022-08-03T11:18:11.519Z,41.80
2022-08-03T11:20:38.671Z,41.78
2022-08-03T11:23:06.712Z,41.41
2022-08-03T11:25:52.972Z,41.68
2022-08-03T11:28:20.817Z,41.70
2022-08-03T11:30:48.629Z,41.51
2022-08-03T11:33:15.678Z,41.49
2022-08-03T11:35:45.551Z,41.47
2022-08-03T11:38:12.682Z,41.48
2022-08-03T11:40:39.844Z,41.71
2022-08-03T11:43:07.292Z,41.51
2022-08-03T11:45:34.351Z,41.58
2022-08-03T11:48:01.395Z,41.46
2022-08-03T11:50:28.458Z,41.49
2022-08-03T11:52:55.590Z,41.22
2022-08-03T11:55:22.727Z,41.25
2022-08-03T11:59:19.212Z,41.20
2022-08-03T12:00:36.878Z,41.31
2022-08-03T12:03:04.100Z,41.38
2022-08-03T12:05:31.210Z,41.26
2022-08-03T12:08:04.100Z,41.19
2022-08-03T12:10:33.473Z,41.24
2022-08-03T12:13:00.515Z,41.37
2022-08-03T12:15:27.734Z,41.21
2022-08-03T12:17:57.847Z,41.22
2022-08-03T12:20:34.578Z,41.10
2022-08-03T12:23:02.379Z,41.05
2022-08-03T12:25:39.204Z,41.00
2022-08-03T12:28:07.048Z,41.36
2022-08-03T12:30:54.971Z,40.94
2022-08-03T12:33:22.226Z,41.17
2022-08-03T12:35:52.557Z,40.88
2022-08-03T12:38:21.371Z,40.54
2022-08-03T12:40:50.767Z,40.62
2022-08-03T12:43:17.816Z,40.81
2022-08-03T12:45:44.941Z,40.58
2022-08-03T12:48:12.052Z,40.75
2022-08-03T12:50:39.722Z,40.54
2022-08-03T12:53:07.971Z,40.89
2022-08-03T12:55:57.200Z,40.60
2022-08-03T12:58:23.445Z,40.69
2022-08-03T13:00:56.174Z,40.67
2022-08-03T13:03:39.037Z,40.56
2022-08-03T13:06:07.151Z,40.12
2022-08-03T13:08:34.204Z,40.53
2022-08-03T13:11:01.244Z,40.68
2022-08-03T13:13:28.283Z,40.95
2022-08-03T13:15:55.328Z,40.69
2022-08-03T13:18:22.383Z,40.65
2022-08-03T13:20:49.478Z,40.33
2022-08-03T13:23:22.656Z,40.64
2022-08-03T13:25:55.818Z,40.29
2022-08-03T13:28:23.222Z,40.50
2022-08-03T13:30:50.281Z,40.47
2022-08-03T13:33:17.383Z,40.48
2022-08-03T13:35:44.491Z,40.75
2022-08-03T13:38:11.697Z,40.61
2022-08-03T13:40:42.165Z,40.79
2022-08-03T13:43:09.436Z,40.25
2022-08-03T13:45:36.482Z,40.74
2022-08-03T13:48:03.557Z,40.42
2022-08-03T13:50:31.418Z,40.57
2022-08-03T13:52:58.557Z,40.65
2022-08-03T13:55:25.632Z,40.53
2022-08-03T13:58:12.000Z,40.58
2022-08-03T14:00:39.925Z,40.26
2022-08-03T14:03:13.876Z,40.07
2022-08-03T14:05:43.052Z,40.49
2022-08-03T14:08:10.203Z,40.43
2022-08-03T14:10:37.438Z,40.37
2022-08-03T14:13:04.721Z,40.37
2022-08-03T14:15:31.864Z,40.17
2022-08-03T14:18:04.471Z,39.84
2022-08-03T14:20:38.683Z,39.50
2022-08-03T14:23:14.708Z,39.89
2022-08-03T14:25:43.415Z,39.80
2022-08-03T14:28:17.852Z,39.77
2022-08-03T14:30:44.902Z,39.91
2022-08-03T14:33:11.943Z,39.81
2022-08-03T14:35:39.007Z,40.15
2022-08-03T14:38:06.171Z,40.00
2022-08-03T14:40:33.306Z,39.79
2022-08-03T14:43:00.358Z,39.75
2022-08-03T14:45:27.690Z,39.67
2022-08-03T14:50:32.848Z,39.66
2022-08-03T14:50:46.748Z,39.67
2022-08-03T14:53:17.720Z,39.42
2022-08-03T14:55:49.702Z,39.85
2022-08-03T14:58:19.654Z,39.35
2022-08-03T15:00:48.772Z,39.54
2022-08-03T15:03:17.388Z,39.46
2022-08-03T15:05:46.000Z,39.44
2022-08-03T15:08:13.063Z,39.19
2022-08-03T15:10:44.469Z,39.18
2022-08-03T15:13:12.753Z,38.77
2022-08-03T15:15:39.822Z,39.09
2022-08-03T15:18:06.891Z,39.26
2022-08-03T15:20:44.253Z,39.00
2022-08-03T15:23:12.425Z,39.07
2022-08-03T15:26:28.009Z,39.06
2022-08-03T15:28:26.570Z,38.95
2022-08-03T15:30:53.838Z,38.91
2022-08-03T15:33:20.906Z,38.95
2022-08-03T15:35:48.060Z,38.87
2022-08-03T15:38:15.161Z,38.89
2022-08-03T15:40:45.437Z,38.75
2022-08-03T15:43:12.539Z,38.87
2022-08-03T15:45:41.863Z,38.73
2022-08-03T15:48:09.170Z,38.75
2022-08-03T15:50:36.331Z,38.73
2022-08-03T15:53:05.036Z,38.86
2022-08-03T15:55:32.216Z,38.73
2022-08-03T15:59:03.265Z,38.73
2022-08-03T16:00:46.558Z,38.93
2022-08-03T16:03:13.676Z,38.59
2022-08-03T16:05:40.787Z,38.83
2022-08-03T16:08:13.350Z,38.60
2022-08-03T16:10:40.947Z,38.72
2022-08-03T16:13:08.023Z,38.49
2022-08-03T16:15:38.341Z,38.57
2022-08-03T16:18:05.993Z,38.59
2022-08-03T16:20:35.043Z,38.70
2022-08-03T16:23:09.109Z,38.57
2022-08-03T16:25:38.809Z,38.81
2022-08-03T16:28:13.747Z,38.76
2022-08-03T16:30:41.207Z,38.64
2022-08-03T16:33:08.375Z,38.65
2022-08-03T16:35:35.464Z,38.08
2022-08-03T16:38:06.501Z,38.56
2022-08-03T16:40:36.534Z,38.54
2022-08-03T16:43:03.620Z,38.79
2022-08-03T16:45:30.697Z,39.14
2022-08-03T16:48:01.454Z,38.93
2022-08-03T16:50:32.571Z,38.97
2022-08-03T16:52:59.701Z,38.93
2022-08-03T16:55:43.324Z,39.14
2022-08-03T16:58:16.490Z,39.21
2022-08-03T17:00:44.382Z,39.14
2022-08-03T17:03:20.546Z,38.94
2022-08-03T17:05:51.261Z,39.27
2022-08-03T17:08:26.699Z,38.91
2022-08-03T17:10:54.474Z,39.10
2022-08-03T17:13:23.001Z,38.99
2022-08-03T17:16:06.688Z,39.42
2022-08-03T17:18:35.059Z,39.48
2022-08-03T17:21:03.348Z,38.94
2022-08-03T17:23:34.877Z,39.30
2022-08-03T17:26:04.200Z,39.23
2022-08-03T17:28:51.174Z,39.14
2022-08-03T17:31:23.209Z,39.22
2022-08-03T17:33:58.142Z,39.44
2022-08-03T17:36:41.815Z,39.88
2022-08-03T17:39:14.517Z,39.81
2022-08-03T17:41:48.949Z,39.59
2022-08-03T17:44:31.171Z,39.67
2022-08-03T17:47:04.477Z,40.09
2022-08-03T17:49:40.022Z,39.86
2022-08-03T17:52:17.362Z,39.84
2022-08-03T17:55:56.224Z,40.12
2022-08-03T17:57:31.853Z,39.82
2022-08-03T18:00:43.328Z,39.73
2022-08-03T18:03:20.552Z,39.60
2022-08-03T18:06:11.748Z,39.67
2022-08-03T18:08:36.548Z,39.55
2022-08-03T18:11:14.398Z,39.60
2022-08-03T18:13:42.174Z,39.88
2022-08-03T18:16:20.563Z,39.60
2022-08-03T18:18:53.996Z,39.53
2022-08-03T18:21:21.916Z,39.63
2022-08-03T18:23:50.107Z,39.41
2022-08-03T18:26:18.107Z,39.79
2022-08-03T18:28:45.189Z,39.80
2022-08-03T18:31:59.789Z,39.68
2022-08-03T18:34:33.075Z,40.27
2022-08-03T18:36:47.661Z,39.64
2022-08-03T18:39:15.232Z,40.13
2022-08-03T18:41:46.514Z,40.12
2022-08-03T18:44:52.553Z,39.89
2022-08-03T18:47:07.092Z,40.23
2022-08-03T18:49:38.145Z,40.18
2022-08-03T18:52:12.223Z,40.18
2022-08-03T18:54:46.681Z,40.26
2022-08-03T18:57:30.281Z,40.54
2022-08-03T19:00:02.326Z,40.35
2022-08-03T19:02:29.921Z,40.33
2022-08-03T19:04:58.315Z,40.30
2022-08-03T19:07:28.823Z,40.34
2022-08-03T19:10:03.793Z,40.35
2022-08-03T19:12:37.402Z,40.41
2022-08-03T19:15:10.448Z,40.18
2022-08-03T19:17:39.965Z,40.34
2022-08-03T19:20:09.045Z,40.21
2022-08-03T19:22:39.974Z,40.20
2022-08-03T19:25:13.238Z,40.26
2022-08-03T19:27:40.445Z,40.35
2022-08-03T19:30:21.939Z,40.36
2022-08-03T19:32:53.400Z,40.63
2022-08-03T19:35:51.283Z,40.26
2022-08-03T19:38:07.689Z,40.61
2022-08-03T19:40:35.423Z,40.61
2022-08-03T19:43:02.594Z,40.63
2022-08-03T19:46:05.473Z,40.74
2022-08-03T19:48:26.439Z,40.96
2022-08-03T19:50:54.442Z,41.04
2022-08-03T19:53:21.649Z,40.71
2022-08-03T19:55:50.174Z,40.72
2022-08-03T19:58:17.701Z,40.77
2022-08-03T20:00:55.936Z,40.86
2022-08-03T20:03:24.869Z,40.91
2022-08-03T20:05:54.176Z,40.78
2022-08-03T20:08:22.199Z,40.71
2022-08-03T20:10:49.638Z,40.73
2022-08-03T20:13:19.396Z,40.61
2022-08-03T20:15:46.799Z,40.54
2022-08-03T20:18:16.573Z,40.17
2022-08-03T20:20:44.179Z,40.20
2022-08-03T20:23:13.996Z,40.42
2022-08-03T20:25:48.680Z,40.43
2022-08-03T20:28:26.623Z,40.32
2022-08-03T20:30:53.971Z,41.03
2022-08-03T20:33:27.981Z,40.57
2022-08-03T20:36:08.260Z,40.83
2022-08-03T20:38:43.728Z,40.82
2022-08-03T20:41:14.187Z,40.54
2022-08-03T20:43:41.793Z,41.00
2022-08-03T20:46:30.861Z,40.97
2022-08-03T20:48:56.073Z,40.99
2022-08-03T20:51:50.051Z,41.04
2022-08-03T20:54:28.974Z,41.06
2022-08-03T20:56:57.261Z,41.05
2022-08-03T20:59:36.578Z,41.15
2022-08-03T21:02:05.891Z,41.10
2022-08-03T21:04:32.977Z,41.07
2022-08-03T21:07:01.039Z,40.93
2022-08-03T21:09:39.714Z,41.08
2022-08-03T21:12:07.745Z,41.17
2022-08-03T21:14:35.638Z,41.41
2022-08-03T21:17:09.383Z,40.79
2022-08-03T21:19:51.854Z,41.21
2022-08-03T21:22:19.612Z,41.12
2022-08-03T21:24:49.412Z,41.25
2022-08-03T21:27:19.980Z,41.00
2022-08-03T21:29:53.220Z,41.06
2022-08-03T21:32:32.911Z,41.17
2022-08-03T21:35:00.425Z,41.03
2022-08-03T21:37:27.473Z,41.23
2022-08-03T21:39:54.666Z,41.15
2022-08-03T21:42:23.822Z,41.10
2022-08-03T21:44:51.264Z,41.25
2022-08-03T21:47:18.408Z,41.30
2022-08-03T21:50:05.846Z,41.03
2022-08-03T21:52:32.579Z,41.30
2022-08-03T21:54:59.630Z,41.10
2022-08-03T21:57:26.728Z,41.16
2022-08-03T21:59:54.053Z,41.62
2022-08-03T22:02:24.186Z,41.01
2022-08-03T22:04:57.188Z,41.37
2022-08-03T22:07:24.635Z,41.42
2022-08-03T22:09:52.236Z,41.28
2022-08-03T22:12:19.381Z,41.41
2022-08-03T22:14:46.433Z,41.48
2022-08-03T22:17:13.824Z,41.25
2022-08-03T22:20:00.928Z,41.36
2022-08-03T22:22:28.484Z,41.22
2022-08-03T22:24:55.555Z,41.28
2022-08-03T22:27:32.223Z,41.16
2022-08-03T22:29:59.311Z,41.21
2022-08-03T22:32:26.974Z,41.05
2022-08-03T22:34:54.132Z,41.08
2022-08-03T22:37:21.450Z,41.00
2022-08-03T22:39:49.243Z,41.02
2022-08-03T22:42:16.380Z,41.18
2022-08-03T22:44:43.451Z,41.09
2022-08-03T22:47:10.543Z,40.96
2022-08-03T22:49:37.700Z,41.37
2022-08-03T22:52:04.806Z,40.96
2022-08-03T22:54:31.867Z,41.06
2022-08-03T22:56:58.944Z,40.90
2022-08-03T22:59:40.544Z,40.98
2022-08-03T23:02:20.600Z,41.41
2022-08-03T23:04:48.514Z,41.05
2022-08-03T23:07:15.703Z,41.16
2022-08-03T23:09:42.751Z,40.94
2022-08-03T23:12:09.795Z,41.14
2022-08-03T23:14:36.847Z,41.15
2022-08-03T23:17:03.937Z,40.82
2022-08-03T23:19:34.360Z,41.27
2022-08-03T23:22:29.293Z,41.27
2022-08-03T23:24:55.807Z,41.02
2022-08-03T23:27:23.058Z,41.09
2022-08-03T23:29:50.329Z,41.28
2022-08-03T23:32:17.378Z,41.48
2022-08-03T23:35:03.450Z,41.27
2022-08-03T23:37:30.497Z,41.26
2022-08-03T23:39:57.548Z,41.11
2022-08-03T23:42:24.607Z,41.04
2022-08-03T23:44:51.661Z,41.31
2022-08-03T23:47:18.737Z,41.48
2022-08-03T23:49:45.800Z,41.46
2022-08-03T23:52:12.855Z,41.16
2022-08-03T23:54:39.948Z,41.15
2022-08-03T23:57:07.010Z,41.00
2022-08-03T23:59:34.063Z,41.35
